Pagrindinis puslapis
METAR-TAF:

METAR-TAF

Oro uostai :

Gove Peninsula, Australija

platuma: 12-16-12S, ilguma: 136-49-06E, Aukštis: 62 m

Dabartinis oras

Ataskaita buvo paskelbta 41 minutes, ne 19:00 UTC
Ramus vėjas
Temperatūra 22°C
Drėgmė 88%
Slėgis 1011 hPa
Matomumas 10 km arba daugiau
Išsisklaidę debesys ne aukštis 2300 ft
Su prošvaistėmis ne aukštis 2700 ft
Su prošvaistėmis ne aukštis 3200 ft

METAR: YPGV 301900Z AUTO 00000KT 9999 // SCT023 BKN027 BKN032 22/20 Q1011

Laikas: 05:11 (19:41 UTC)

Prognozė

Ataskaita buvo paskelbta 1 valandą ir 40 minutes, ne 18:01 UTC
Prognozė galioja nuo 30 metu 20 UTC su 01 metu 08 UTC
Vėjas 7 kt iš Rytų
Matomumas 10 km arba daugiau
Išsisklaidę debesys ne aukštis 2000 ft
Nuo 01 metu 0000 UTC
Vėjas 14 kt iš Rytų
Matomumas 10 km arba daugiau
Išsisklaidę debesys ne aukštis 2500 ft

TAF: YPGV 301801Z 3020/0108 10007KT 9999 SCT020 FM010000 09014KT 9999 SCT025

Orai ataskaitas ir orų prognozės (METAR, TAF).

turimą stotys yra geltonos ir raudonos taškus žemėlapyje.

Perkelti pele per norėdami pamatyti stoties vardą.

Tada spustelėkite, norėdami matyti oro stebėjimo ir prognozės.

Norėdami pakeisti žemėlapį: spustelėkite ant žalios mygtukų su juodo kryžiaus žemyn,; žalią mygtuką su brūkšneliu, jei norite nutolinti; arba žalių rodyklių gretimoms žemėlapius.


METAR-TAF: